Time;durP1;ratioP1;P1;durP2;ratioP2;P2;SDS_P1;SDS_P2;PMS_P1;PMS_P2;Temp;Humidity;BMP_temperature;BMP_pressure;BME280_temperature;BME280_humidity;BME280_pressure;Samples;Min_cycle;Max_cycle;Signal;HPM_P1;HPM_P2
2022/01/06 00:01:01;;;;;;;20.98;3.60;;;5.60;99.90;;;;;;5128284;27;20491;-81
2022/01/06 00:03:27;;;;;;;24.75;4.80;;;5.60;99.90;;;;;;5095779;27;20039;-81
2022/01/06 00:05:55;;;;;;;31.75;4.43;;;5.50;99.90;;;;;;5110388;27;20596;-81
2022/01/06 00:08:21;;;;;;;29.73;5.13;;;5.60;99.90;;;;;;5111709;27;20512;-81
2022/01/06 00:10:48;;;;;;;21.08;4.80;;;5.60;99.90;;;;;;5089762;27;20055;-82
2022/01/06 00:13:18;;;;;;;27.27;6.00;;;5.50;99.90;;;;;;5094951;28;20074;-81
2022/01/06 00:16:02;;;;;;;20.55;3.78;;;5.40;99.90;;;;;;5107141;27;20050;-81
2022/01/06 00:23:02;;;;;;;24.63;3.85;;;5.40;99.90;;;;;;5121523;27;20043;-81
2022/01/06 00:24:00;;;;;;;26.05;3.38;;;5.30;99.90;;;;;;5127022;27;20058;-82
2022/01/06 00:26:25;;;;;;;21.60;3.25;;;5.30;99.90;;;;;;5115433;27;20043;-82
2022/01/06 00:28:51;;;;;;;21.63;4.38;;;5.30;99.90;;;;;;5128513;27;20035;-81
2022/01/06 00:31:17;;;;;;;24.63;5.10;;;5.30;99.90;;;;;;5082351;28;20079;-81
2022/01/06 00:33:42;;;;;;;28.35;4.85;;;5.20;99.90;;;;;;5074877;28;20047;-82
2022/01/06 00:36:08;;;;;;;21.02;3.40;;;5.20;99.90;;;;;;5122424;27;20043;-82
2022/01/06 00:38:34;;;;;;;19.17;3.83;;;5.20;99.90;;;;;;5110549;27;20483;-82
2022/01/06 00:40:59;;;;;;;23.23;3.50;;;5.20;99.90;;;;;;5094836;27;20050;-82
2022/01/06 00:43:25;;;;;;;15.35;3.15;;;5.20;99.90;;;;;;5096009;28;20476;-81
2022/01/06 00:45:51;;;;;;;23.27;3.80;;;5.20;99.90;;;;;;5094447;28;20039;-82
2022/01/06 00:48:17;;;;;;;20.75;3.15;;;5.20;99.90;;;;;;5106405;28;20056;-83
2022/01/06 00:50:44;;;;;;;19.88;3.33;;;5.20;99.90;;;;;;5128833;28;20051;-82
2022/01/06 00:53:10;;;;;;;22.60;3.17;;;5.20;99.90;;;;;;5121603;28;20044;-82
2022/01/06 00:55:37;;;;;;;19.27;3.22;;;5.10;99.90;;;;;;5089043;28;20043;-81
2022/01/06 00:58:03;;;;;;;31.05;3.78;;;5.20;99.90;;;;;;5081200;28;20036;-81
2022/01/06 01:00:38;;;;;;;25.35;4.30;;;5.20;99.90;;;;;;5127612;28;20096;-82
2022/01/06 01:03:06;;;;;;;25.83;3.47;;;5.20;99.90;;;;;;5128858;28;20043;-81
2022/01/06 01:05:32;;;;;;;17.75;3.03;;;5.20;99.90;;;;;;5109985;28;20136;-81
2022/01/06 01:07:58;;;;;;;20.73;4.50;;;5.10;99.90;;;;;;5086945;28;20070;-82
2022/01/06 01:10:23;;;;;;;26.90;4.68;;;5.10;99.90;;;;;;5116976;28;20126;-81
2022/01/06 01:12:49;;;;;;;24.35;4.05;;;5.10;99.90;;;;;;5110814;28;20047;-82
2022/01/06 01:15:20;;;;;;;18.73;3.42;;;5.10;99.90;;;;;;5095317;28;20035;-81
2022/01/06 01:17:52;;;;;;;27.08;3.88;;;5.00;99.90;;;;;;5114012;28;20066;-81
2022/01/06 01:20:19;;;;;;;23.65;4.15;;;5.10;99.90;;;;;;5123667;28;20447;-83
2022/01/06 01:22:46;;;;;;;24.25;4.15;;;5.00;99.90;;;;;;5127771;28;20043;-82
2022/01/06 01:25:12;;;;;;;21.38;3.28;;;5.00;99.90;;;;;;5127560;28;20039;-83
2022/01/06 01:27:41;;;;;;;28.42;3.83;;;5.20;99.90;;;;;;5107530;28;20506;-82
2022/01/06 01:30:13;;;;;;;28.38;3.75;;;5.20;99.90;;;;;;5088772;28;20051;-81
2022/01/06 01:32:42;;;;;;;21.27;4.22;;;5.20;99.90;;;;;;5124315;28;20071;-82
2022/01/06 01:35:09;;;;;;;23.27;3.50;;;5.20;99.90;;;;;;5107786;28;20043;-82
2022/01/06 01:37:37;;;;;;;28.42;3.92;;;5.30;99.90;;;;;;5110046;28;20077;-81
2022/01/06 01:40:07;;;;;;;19.70;3.33;;;5.20;99.90;;;;;;5098628;28;20043;-82
2022/01/06 01:42:33;;;;;;;26.23;4.60;;;5.20;99.90;;;;;;5106387;28;20160;-81
2022/01/06 01:45:01;;;;;;;25.35;4.05;;;5.20;99.90;;;;;;5083300;28;20051;-81
2022/01/06 01:47:38;;;;;;;19.33;2.97;;;5.20;99.90;;;;;;5085365;28;20051;-87
2022/01/06 01:50:20;;;;;;;29.95;3.72;;;5.20;99.90;;;;;;5131996;28;20048;-81
2022/01/06 01:52:49;;;;;;;20.63;4.50;;;5.10;99.90;;;;;;5111018;28;20498;-82
2022/01/06 01:55:35;;;;;;;21.38;3.78;;;5.10;99.90;;;;;;5111697;28;20051;-81
2022/01/06 01:58:01;;;;;;;22.67;3.45;;;5.10;99.90;;;;;;5103738;28;20035;-81
2022/01/06 02:00:29;;;;;;;21.75;3.03;;;5.00;99.90;;;;;;5116395;27;20046;-81
2022/01/06 02:02:55;;;;;;;26.33;4.25;;;5.00;99.90;;;;;;5124945;27;20047;-82
2022/01/06 02:05:26;;;;;;;21.17;3.58;;;4.90;99.90;;;;;;5130315;27;20036;-81
2022/01/06 02:07:53;;;;;;;29.60;5.20;;;5.00;99.90;;;;;;5101530;27;20055;-81
2022/01/06 02:10:20;;;;;;;25.75;4.55;;;4.90;99.90;;;;;;5130242;27;20085;-82
2022/01/06 02:12:48;;;;;;;20.05;4.30;;;4.90;99.90;;;;;;5102738;28;20059;-82
2022/01/06 02:15:14;;;;;;;24.17;4.00;;;4.90;99.90;;;;;;5081468;28;20050;-81
2022/01/06 02:17:41;;;;;;;28.38;4.07;;;4.90;99.90;;;;;;5100243;27;20547;-81
2022/01/06 02:20:09;;;;;;;24.20;3.70;;;4.80;99.90;;;;;;5114674;27;20062;-81
2022/01/06 02:22:36;;;;;;;27.35;5.30;;;4.70;99.90;;;;;;5107399;28;20051;-81
2022/01/06 02:25:13;;;;;;;24.67;2.95;;;4.70;99.90;;;;;;5101316;27;20475;-81
2022/01/06 02:27:40;;;;;;;17.70;2.97;;;4.70;99.90;;;;;;5123656;27;20051;-81
2022/01/06 02:30:07;;;;;;;24.67;4.30;;;4.60;99.90;;;;;;5113082;27;20047;-81
2022/01/06 02:32:33;;;;;;;27.02;4.28;;;4.50;99.90;;;;;;5085656;28;20048;-81
2022/01/06 02:35:07;;;;;;;26.48;4.15;;;4.50;99.90;;;;;;5073040;28;20101;-81
2022/01/06 02:37:33;;;;;;;16.90;3.65;;;4.50;99.90;;;;;;5119398;27;20054;-81
2022/01/06 02:39:59;;;;;;;22.63;3.63;;;4.50;99.90;;;;;;5113910;27;20055;-81
2022/01/06 02:42:26;;;;;;;25.48;4.20;;;4.50;99.90;;;;;;5112917;27;20043;-82
2022/01/06 02:44:51;;;;;;;24.60;4.18;;;4.40;99.90;;;;;;5097826;27;20297;-82
2022/01/06 02:47:17;;;;;;;22.45;3.63;;;4.40;99.90;;;;;;5088275;28;20082;-81
2022/01/06 02:49:43;;;;;;;21.25;3.47;;;4.30;99.90;;;;;;5068014;28;20051;-81
2022/01/06 02:52:08;;;;;;;26.65;3.88;;;4.30;99.90;;;;;;5096497;28;20049;-81
2022/01/06 02:54:34;;;;;;;22.52;3.40;;;4.30;99.90;;;;;;5110121;27;20043;-81
2022/01/06 02:57:02;;;;;;;29.02;3.53;;;4.30;99.90;;;;;;5116535;27;20042;-81
2022/01/06 02:59:27;;;;;;;43.13;5.88;;;4.30;99.90;;;;;;5106380;28;20051;-81
2022/01/06 03:01:53;;;;;;;26.45;4.05;;;4.40;99.90;;;;;;5113320;27;20054;-82
2022/01/06 03:04:20;;;;;;;32.47;4.65;;;4.30;99.90;;;;;;5097027;28;20043;-81
2022/01/06 03:06:46;;;;;;;27.38;4.07;;;4.40;99.90;;;;;;5116551;27;20391;-81
2022/01/06 03:09:12;;;;;;;27.92;3.90;;;4.30;99.90;;;;;;5077649;27;20043;-81
2022/01/06 03:11:42;;;;;;;23.08;4.18;;;4.40;99.90;;;;;;5080775;27;20042;-81
2022/01/06 03:14:08;;;;;;;31.63;5.15;;;4.30;99.90;;;;;;5116911;27;20051;-81
2022/01/06 03:16:34;;;;;;;21.50;3.60;;;4.20;99.90;;;;;;5110578;27;20491;-82
2022/01/06 03:19:00;;;;;;;26.23;3.25;;;4.20;99.90;;;;;;5101181;27;20053;-81
2022/01/06 03:21:25;;;;;;;24.35;3.42;;;4.20;99.90;;;;;;5116669;27;20487;-82
2022/01/06 03:23:51;;;;;;;22.65;3.55;;;4.10;99.90;;;;;;5097628;28;20042;-81
2022/01/06 03:26:17;;;;;;;21.17;4.07;;;4.10;99.90;;;;;;5122785;27;20104;-81
2022/01/06 03:28:42;;;;;;;23.17;3.42;;;4.10;99.90;;;;;;5121238;27;20043;-85
2022/01/06 03:31:08;;;;;;;28.50;4.25;;;4.00;99.90;;;;;;5126416;27;20464;-81
2022/01/06 03:33:34;;;;;;;26.83;3.63;;;4.00;99.90;;;;;;5110959;27;20092;-82
2022/01/06 03:35:59;;;;;;;19.05;3.63;;;3.90;99.90;;;;;;5120840;27;20043;-81
2022/01/06 03:38:25;;;;;;;34.95;5.00;;;3.90;99.90;;;;;;5108838;27;20054;-81
2022/01/06 03:40:51;;;;;;;31.20;4.68;;;3.80;99.90;;;;;;5090993;27;20055;-81
2022/01/06 03:43:16;;;;;;;27.73;3.90;;;3.70;99.90;;;;;;5087042;28;20046;-81
2022/01/06 03:45:42;;;;;;;27.92;4.68;;;3.70;99.90;;;;;;5094516;27;20044;-81
2022/01/06 03:48:08;;;;;;;26.38;4.93;;;3.60;99.90;;;;;;5078828;28;20388;-80
2022/01/06 03:50:33;;;;;;;29.05;3.55;;;3.60;99.90;;;;;;5110668;28;20098;-81
2022/01/06 03:52:59;;;;;;;27.45;4.38;;;3.60;99.90;;;;;;5088486;27;20130;-81
2022/01/06 03:55:25;;;;;;;20.60;3.58;;;3.60;99.90;;;;;;5101571;28;20043;-81
2022/01/06 03:57:51;;;;;;;29.15;4.10;;;3.60;99.90;;;;;;5106626;28;20043;-81
2022/01/06 04:00:19;;;;;;;25.02;3.92;;;3.70;99.90;;;;;;5105911;27;20043;-81
2022/01/06 04:02:46;;;;;;;28.67;3.92;;;3.70;99.90;;;;;;5113375;27;20118;-81
2022/01/06 04:05:12;;;;;;;27.67;4.30;;;3.70;99.90;;;;;;5102501;28;20050;-81
2022/01/06 04:07:39;;;;;;;32.20;4.60;;;3.80;99.90;;;;;;5098511;28;20130;-82
2022/01/06 04:10:06;;;;;;;24.40;4.40;;;3.60;99.90;;;;;;5083006;27;20051;-82
2022/01/06 04:12:36;;;;;;;33.38;4.03;;;3.60;99.90;;;;;;5109174;28;20071;-81
2022/01/06 04:15:05;;;;;;;25.33;3.83;;;3.50;99.90;;;;;;5099132;28;20128;-81
2022/01/06 04:17:30;;;;;;;20.52;3.30;;;3.40;99.90;;;;;;5114460;27;20498;-81
2022/01/06 04:19:56;;;;;;;30.10;4.35;;;3.30;99.90;;;;;;5122223;27;20035;-81
2022/01/06 04:22:22;;;;;;;24.83;4.60;;;3.20;99.90;;;;;;5128599;27;20096;-82
2022/01/06 04:24:48;;;;;;;26.80;3.90;;;3.20;99.90;;;;;;5078137;28;20051;-81
2022/01/06 04:27:13;;;;;;;18.38;3.20;;;3.10;99.90;;;;;;5110216;27;20050;-81
2022/01/06 04:29:40;;;;;;;22.98;3.70;;;3.10;99.90;;;;;;5112828;27;20039;-81
2022/01/06 04:32:06;;;;;;;24.90;3.72;;;3.10;99.90;;;;;;5094612;27;20043;-81
2022/01/06 04:34:31;;;;;;;21.90;3.35;;;3.00;99.90;;;;;;5098947;27;20047;-81
2022/01/06 04:36:59;;;;;;;22.83;3.17;;;3.00;99.90;;;;;;5085875;28;20047;-81
2022/01/06 04:39:25;;;;;;;23.30;3.45;;;2.90;99.90;;;;;;5096983;28;20051;-81
2022/01/06 04:41:51;;;;;;;19.73;3.25;;;2.90;99.90;;;;;;5115296;27;20111;-81
2022/01/06 04:44:16;;;;;;;24.02;3.60;;;2.80;99.90;;;;;;5092477;28;20047;-81
2022/01/06 04:46:42;;;;;;;28.20;5.63;;;2.90;99.90;;;;;;5096871;28;20048;-81
2022/01/06 04:49:08;;;;;;;30.98;3.97;;;2.80;99.90;;;;;;5080964;28;20078;-81
2022/01/06 04:51:34;;;;;;;19.83;3.33;;;2.80;99.90;;;;;;5094279;28;20413;-81
2022/01/06 04:54:00;;;;;;;21.55;3.33;;;2.70;99.90;;;;;;5097615;28;20061;-81
2022/01/06 04:56:26;;;;;;;35.45;4.57;;;2.70;99.90;;;;;;5099787;28;20043;-81
2022/01/06 04:58:51;;;;;;;23.42;3.97;;;2.70;99.90;;;;;;5115123;28;20051;-81
2022/01/06 05:01:17;;;;;;;28.73;3.90;;;2.70;99.90;;;;;;5101899;28;20082;-81
2022/01/06 05:03:43;;;;;;;26.60;3.78;;;2.60;99.90;;;;;;5109711;28;20042;-83
2022/01/06 05:06:09;;;;;;;28.38;3.78;;;2.60;99.90;;;;;;5108626;28;20062;-81
2022/01/06 05:08:34;;;;;;;28.20;4.32;;;2.60;99.90;;;;;;5112022;28;20031;-81
2022/01/06 05:11:00;;;;;;;30.38;3.70;;;2.60;99.90;;;;;;5102496;28;20093;-81
2022/01/06 05:13:26;;;;;;;24.33;3.55;;;2.60;99.90;;;;;;5106094;28;20386;-81
2022/01/06 05:15:52;;;;;;;23.25;3.85;;;2.50;99.90;;;;;;5117944;28;20567;-81
2022/01/06 05:18:18;;;;;;;27.70;3.85;;;2.50;99.90;;;;;;5122803;28;20079;-81
2022/01/06 05:20:43;;;;;;;28.23;4.72;;;2.40;99.90;;;;;;5084060;28;20086;-81
2022/01/06 05:23:13;;;;;;;22.77;3.83;;;2.40;99.90;;;;;;5078965;27;20134;-81
2022/01/06 05:25:39;;;;;;;30.70;4.35;;;2.40;99.90;;;;;;5123681;28;20420;-81
2022/01/06 05:28:05;;;;;;;29.40;3.95;;;2.40;99.90;;;;;;5111583;27;20049;-81
2022/01/06 05:30:31;;;;;;;29.90;4.30;;;2.30;99.90;;;;;;5098175;28;20047;-81
2022/01/06 05:32:56;;;;;;;31.02;4.30;;;2.30;99.90;;;;;;5083309;28;20047;-81
2022/01/06 05:35:22;;;;;;;38.42;4.63;;;2.30;99.90;;;;;;5115488;27;20498;-84
2022/01/06 05:37:49;;;;;;;32.53;4.45;;;2.20;99.90;;;;;;5091237;27;20062;-81
2022/01/06 05:40:14;;;;;;;26.25;4.15;;;2.20;99.90;;;;;;5101575;27;20061;-81
2022/01/06 05:42:41;;;;;;;40.70;4.30;;;2.10;99.90;;;;;;5132398;27;20126;-81
2022/01/06 05:45:08;;;;;;;28.75;5.90;;;2.10;99.90;;;;;;5092881;28;20044;-81
2022/01/06 05:47:34;;;;;;;30.80;4.88;;;2.00;99.90;;;;;;5109606;27;20036;-82
2022/01/06 05:50:00;;;;;;;26.30;3.88;;;2.00;99.90;;;;;;5114890;27;20054;-81
2022/01/06 05:52:26;;;;;;;28.83;3.95;;;2.00;99.90;;;;;;5095302;28;20055;-81
2022/01/06 05:54:51;;;;;;;29.38;3.53;;;2.00;99.90;;;;;;5091778;28;20074;-81
2022/01/06 05:57:19;;;;;;;33.90;4.15;;;2.00;99.90;;;;;;5099422;27;20098;-81
2022/01/06 05:59:45;;;;;;;32.85;4.07;;;1.90;99.90;;;;;;5098866;27;20387;-81
2022/01/06 06:02:11;;;;;;;24.75;3.75;;;1.90;99.90;;;;;;5103347;27;20046;-82
2022/01/06 06:04:36;;;;;;;23.83;4.35;;;1.90;99.90;;;;;;5077880;27;20415;-82
2022/01/06 06:07:02;;;;;;;26.88;4.93;;;1.90;99.90;;;;;;5100710;27;20043;-82
2022/01/06 06:09:28;;;;;;;37.55;4.20;;;1.90;99.90;;;;;;5099255;27;20042;-81
2022/01/06 06:11:54;;;;;;;29.92;3.65;;;1.90;99.90;;;;;;5116761;27;20046;-81
2022/01/06 06:14:19;;;;;;;38.95;4.05;;;1.80;99.90;;;;;;5105509;28;20048;-80
2022/01/06 06:16:46;;;;;;;20.67;3.35;;;1.80;99.90;;;;;;5115350;27;20037;-81
2022/01/06 06:19:11;;;;;;;30.08;3.83;;;1.70;99.90;;;;;;5092424;28;20111;-86
2022/01/06 06:21:37;;;;;;;34.03;4.38;;;1.80;99.90;;;;;;5125336;27;20047;-81
2022/01/06 06:24:03;;;;;;;34.45;5.32;;;1.70;99.90;;;;;;5081272;28;20090;-81
2022/01/06 06:26:29;;;;;;;28.02;3.88;;;1.70;99.90;;;;;;5104627;28;20127;-81
2022/01/06 06:28:54;;;;;;;35.67;4.97;;;1.70;99.90;;;;;;5087344;28;20044;-81
2022/01/06 06:31:20;;;;;;;31.83;3.60;;;1.70;99.90;;;;;;5096426;27;20079;-81
2022/01/06 06:33:46;;;;;;;32.17;4.68;;;1.80;99.90;;;;;;5100379;27;20050;-81
2022/01/06 06:36:12;;;;;;;30.10;4.15;;;1.60;99.90;;;;;;5129652;27;20716;-82
2022/01/06 06:38:37;;;;;;;29.55;4.05;;;1.60;99.90;;;;;;5100028;27;20407;-81
2022/01/06 06:41:03;;;;;;;25.58;4.07;;;1.60;99.90;;;;;;5134948;27;20095;-81
2022/01/06 06:43:29;;;;;;;30.27;4.00;;;1.60;99.90;;;;;;5083135;27;20071;-81
2022/01/06 06:45:55;;;;;;;25.70;3.50;;;1.60;99.90;;;;;;5102136;27;20043;-81
2022/01/06 06:48:22;;;;;;;23.38;3.42;;;1.60;99.90;;;;;;5113203;28;20369;-81
2022/01/06 06:50:48;;;;;;;26.42;3.63;;;1.60;99.90;;;;;;5094903;28;20047;-81
2022/01/06 06:53:13;;;;;;;32.13;3.80;;;1.60;99.90;;;;;;5111293;27;20054;-81
2022/01/06 06:55:39;;;;;;;29.42;3.63;;;1.60;99.90;;;;;;5116914;27;20046;-82
2022/01/06 06:58:05;;;;;;;36.20;4.05;;;1.60;99.90;;;;;;5120788;27;20127;-81
2022/01/06 07:00:31;;;;;;;32.42;4.60;;;1.60;99.90;;;;;;5092031;28;20051;-81
2022/01/06 07:02:56;;;;;;;27.83;3.35;;;1.50;99.90;;;;;;5114336;27;20044;-80
2022/01/06 07:05:22;;;;;;;25.80;3.75;;;1.50;99.90;;;;;;5096511;28;20047;-80
2022/01/06 07:07:48;;;;;;;32.10;4.55;;;1.50;99.90;;;;;;5105283;27;20546;-81
2022/01/06 07:10:14;;;;;;;30.80;3.70;;;1.50;99.90;;;;;;5105167;27;20104;-82
2022/01/06 07:12:41;;;;;;;37.47;4.03;;;1.50;99.90;;;;;;5101172;27;21698;-79
2022/01/06 07:15:12;;;;;;;18.73;2.85;;;1.50;99.90;;;;;;5125952;27;20074;-78
2022/01/06 07:17:39;;;;;;;21.58;3.22;;;1.50;99.90;;;;;;5109011;27;20846;-82
2022/01/06 07:20:06;;;;;;;33.05;4.05;;;1.50;99.90;;;;;;5105774;27;20039;-83
2022/01/06 07:22:32;;;;;;;23.77;3.92;;;1.60;99.90;;;;;;5101077;27;20545;-82
2022/01/06 07:24:58;;;;;;;24.17;3.88;;;1.70;99.90;;;;;;5087056;27;20122;-83
2022/01/06 07:27:23;;;;;;;28.38;4.30;;;1.70;99.90;;;;;;5094933;27;20085;-82
2022/01/06 07:29:49;;;;;;;29.23;3.75;;;1.90;99.90;;;;;;5126919;27;20039;-83
2022/01/06 07:32:15;;;;;;;26.40;4.30;;;2.00;99.90;;;;;;5112022;27;20050;-81
2022/01/06 07:34:41;;;;;;;25.08;3.50;;;2.00;99.90;;;;;;5111955;27;20042;-83
2022/01/06 07:37:07;;;;;;;18.15;3.08;;;2.10;99.90;;;;;;5120957;27;20047;-81
2022/01/06 07:39:32;;;;;;;22.73;3.00;;;2.10;99.90;;;;;;5109937;27;20061;-81
2022/01/06 07:41:58;;;;;;;13.50;2.40;;;2.20;99.90;;;;;;5112197;28;20117;-81
2022/01/06 07:44:24;;;;;;;19.15;3.22;;;2.30;99.90;;;;;;5101105;27;20043;-82
2022/01/06 07:46:50;;;;;;;16.67;2.78;;;2.30;99.90;;;;;;5123984;27;20052;-83
2022/01/06 07:49:16;;;;;;;14.65;2.40;;;2.40;99.90;;;;;;5126878;27;20039;-83
2022/01/06 07:51:42;;;;;;;25.08;3.70;;;2.50;99.90;;;;;;5129529;27;20050;-82
2022/01/06 07:54:08;;;;;;;16.20;2.90;;;2.50;99.90;;;;;;5104330;28;20055;-81
2022/01/06 07:56:34;;;;;;;23.48;3.00;;;2.60;99.90;;;;;;5114464;27;20050;-82
2022/01/06 07:59:00;;;;;;;22.27;3.40;;;2.60;99.90;;;;;;5103328;27;20047;-82
2022/01/06 08:01:26;;;;;;;27.02;3.03;;;2.60;99.90;;;;;;5085605;28;20461;-83
2022/01/06 08:03:52;;;;;;;14.73;1.85;;;2.60;99.90;;;;;;5110232;27;20138;-83
2022/01/06 08:06:19;;;;;;;21.73;2.92;;;2.50;99.90;;;;;;5107902;27;20125;-82
2022/01/06 08:08:45;;;;;;;19.10;2.50;;;2.50;99.90;;;;;;5132615;27;20035;-83
2022/01/06 08:11:12;;;;;;;21.40;2.72;;;2.40;99.90;;;;;;5102656;27;20051;-83
2022/01/06 08:13:40;;;;;;;15.65;2.22;;;2.40;99.90;;;;;;5091363;28;20039;-82
2022/01/06 08:16:06;;;;;;;10.90;2.05;;;2.40;99.90;;;;;;5123997;27;20047;-82
2022/01/06 08:18:32;;;;;;;12.38;2.67;;;2.40;99.90;;;;;;5114500;27;20140;-82
2022/01/06 08:20:58;;;;;;;16.70;2.83;;;2.30;99.90;;;;;;5106217;27;20488;-82
2022/01/06 08:23:25;;;;;;;15.35;3.03;;;2.30;99.90;;;;;;5109101;28;20074;-82
2022/01/06 08:25:50;;;;;;;18.92;2.20;;;2.30;99.90;;;;;;5106761;28;20105;-82
2022/01/06 08:28:16;;;;;;;14.95;2.28;;;2.20;99.90;;;;;;5095980;28;20047;-82
2022/01/06 08:30:42;;;;;;;17.75;2.63;;;2.20;99.90;;;;;;5093523;27;20125;-83
2022/01/06 08:33:08;;;;;;;16.83;3.20;;;2.20;99.90;;;;;;5084787;27;20119;-82
2022/01/06 08:35:34;;;;;;;14.90;2.40;;;2.20;99.90;;;;;;5131204;27;20409;-83
2022/01/06 08:38:00;;;;;;;16.83;2.30;;;2.20;99.90;;;;;;5117733;27;20051;-82
2022/01/06 08:40:25;;;;;;;19.48;2.97;;;2.20;99.90;;;;;;5086888;28;20051;-82
2022/01/06 08:42:52;;;;;;;13.32;2.67;;;2.10;99.90;;;;;;5126263;27;20054;-81
2022/01/06 08:45:19;;;;;;;15.93;2.55;;;2.20;99.90;;;;;;5106759;28;20091;-80
2022/01/06 08:47:45;;;;;;;19.08;2.88;;;2.10;99.90;;;;;;5106268;28;20403;-80
2022/01/06 08:50:11;;;;;;;16.75;3.00;;;2.20;99.90;;;;;;5118452;28;20046;-85
2022/01/06 08:52:39;;;;;;;17.05;2.90;;;2.20;99.90;;;;;;5083417;28;20043;-83
2022/01/06 08:55:06;;;;;;;14.68;2.78;;;2.10;99.90;;;;;;5118692;28;20039;-80
2022/01/06 08:57:31;;;;;;;24.85;4.43;;;2.20;99.90;;;;;;5093528;28;20505;-82
2022/01/06 08:59:58;;;;;;;19.30;4.63;;;2.20;99.90;;;;;;5130230;28;20047;-81
2022/01/06 09:02:24;;;;;;;24.77;4.00;;;2.30;99.90;;;;;;5114092;28;20512;-82
2022/01/06 09:04:50;;;;;;;25.23;3.95;;;2.30;99.90;;;;;;5126797;28;20055;-81
2022/01/06 09:07:16;;;;;;;20.58;4.00;;;2.50;99.90;;;;;;5110778;28;20050;-80
2022/01/06 09:09:42;;;;;;;24.27;3.17;;;2.50;99.90;;;;;;5125469;27;20400;-81
2022/01/06 09:12:11;;;;;;;14.88;3.42;;;2.50;99.90;;;;;;5131906;27;20042;-82
2022/01/06 09:14:37;;;;;;;20.70;3.10;;;2.60;99.90;;;;;;5109522;27;20043;-83
2022/01/06 09:17:03;;;;;;;17.55;3.88;;;2.60;99.90;;;;;;5095927;27;20486;-81
2022/01/06 09:19:28;;;;;;;20.13;3.10;;;2.70;99.90;;;;;;5098185;27;20036;-78
2022/01/06 09:21:54;;;;;;;16.35;2.85;;;2.70;99.90;;;;;;5126831;27;20052;-81
2022/01/06 09:24:20;;;;;;;22.00;3.22;;;2.80;99.90;;;;;;5117690;27;20046;-79
2022/01/06 09:26:45;;;;;;;21.20;3.35;;;2.80;99.90;;;;;;5118933;27;20043;-81
2022/01/06 09:29:13;;;;;;;17.30;3.40;;;2.90;99.90;;;;;;5136002;27;20119;-80
2022/01/06 09:31:41;;;;;;;18.10;3.60;;;3.00;99.90;;;;;;5106296;27;20120;-81
2022/01/06 09:34:08;;;;;;;17.00;3.78;;;2.90;99.90;;;;;;5085916;28;20464;-82
2022/01/06 09:36:34;;;;;;;22.38;4.00;;;3.00;99.90;;;;;;5112024;27;20050;-78
2022/01/06 09:39:01;;;;;;;15.95;3.15;;;3.10;99.90;;;;;;5114696;27;20056;-80
2022/01/06 09:41:27;;;;;;;22.77;3.53;;;3.20;99.90;;;;;;5135203;27;20039;-81
2022/01/06 09:43:54;;;;;;;11.80;2.85;;;3.20;99.90;;;;;;5104046;27;20557;-82
2022/01/06 09:46:20;;;;;;;21.05;3.08;;;3.30;99.90;;;;;;5135490;27;20046;-82
2022/01/06 09:48:48;;;;;;;17.17;3.05;;;3.30;99.90;;;;;;5114827;28;20101;-82
2022/01/06 09:51:15;;;;;;;20.45;3.90;;;3.40;99.90;;;;;;5113043;27;20164;-82
2022/01/06 09:53:41;;;;;;;23.38;4.18;;;3.50;99.90;;;;;;5117728;27;20054;-79
2022/01/06 09:56:08;;;;;;;17.13;2.65;;;3.60;99.90;;;;;;5114048;27;20498;-78
2022/01/06 09:58:34;;;;;;;15.57;2.95;;;3.60;99.90;;;;;;5097528;28;20373;-78
2022/01/06 10:01:00;;;;;;;16.45;3.40;;;3.70;99.90;;;;;;5130640;27;20046;-84
2022/01/06 10:03:38;;;;;;;19.77;3.95;;;3.80;99.90;;;;;;5100969;27;20531;-84
2022/01/06 10:06:15;;;;;;;19.17;3.78;;;3.90;99.90;;;;;;5099816;28;20488;-84
2022/01/06 10:08:49;;;;;;;16.73;2.53;;;3.90;99.90;;;;;;5123083;27;20106;-86
2022/01/06 10:11:19;;;;;;;18.35;3.13;;;4.00;99.90;;;;;;5136187;27;20039;-88
2022/01/06 10:13:53;;;;;;;20.77;3.00;;;4.00;99.90;;;;;;5118167;27;20096;-87
2022/01/06 10:16:20;;;;;;;17.73;2.97;;;4.10;99.90;;;;;;5135563;27;20503;-82
2022/01/06 10:19:05;;;;;;;20.10;3.40;;;4.20;99.90;;;;;;5117560;27;20047;-82
2022/01/06 10:21:57;;;;;;;21.23;3.35;;;4.30;99.90;;;;;;5116865;27;20050;-82
2022/01/06 10:24:25;;;;;;;24.65;3.45;;;4.40;99.90;;;;;;5128166;27;20039;-82
2022/01/06 10:26:52;;;;;;;28.98;3.72;;;4.50;99.90;;;;;;5095353;28;20388;-82
2022/01/06 10:29:19;;;;;;;16.05;3.00;;;4.60;99.90;;;;;;5130910;27;20055;-82
2022/01/06 10:31:45;;;;;;;22.98;3.22;;;4.70;99.90;;;;;;5110574;27;20043;-82
2022/01/06 10:34:11;;;;;;;21.83;4.05;;;4.70;99.90;;;;;;5117168;27;20054;-79
2022/01/06 10:36:38;;;;;;;20.75;3.60;;;4.80;99.90;;;;;;5128287;27;20504;-84
2022/01/06 10:39:08;;;;;;;22.33;3.25;;;5.00;99.90;;;;;;5097499;28;20047;-85
2022/01/06 10:41:37;;;;;;;23.70;3.45;;;5.00;99.90;;;;;;5097185;28;20051;-83
2022/01/06 10:44:05;;;;;;;21.00;3.17;;;5.10;99.90;;;;;;5126090;27;20484;-84
2022/01/06 10:46:42;;;;;;;22.83;3.60;;;5.20;99.90;;;;;;5114637;27;20092;-84
2022/01/06 10:49:15;;;;;;;28.75;5.68;;;5.20;99.90;;;;;;5115669;27;20039;-82
2022/01/06 10:51:48;;;;;;;24.08;3.33;;;5.20;99.90;;;;;;5119883;27;20040;-85
2022/01/06 10:54:21;;;;;;;23.48;4.38;;;5.20;99.90;;;;;;5132964;27;20499;-83
2022/01/06 10:57:12;;;;;;;25.27;4.40;;;5.20;99.90;;;;;;5107537;27;20106;-83
2022/01/06 10:59:38;;;;;;;24.55;4.80;;;5.40;99.90;;;;;;5114623;28;20047;-85
2022/01/06 11:02:05;;;;;;;27.67;3.88;;;5.40;99.90;;;;;;5113620;28;20253;-83
2022/01/06 11:04:31;;;;;;;22.98;4.00;;;5.60;99.90;;;;;;5080401;28;20047;-83
2022/01/06 11:06:57;;;;;;;25.67;4.30;;;5.70;99.90;;;;;;5108127;27;20537;-84
2022/01/06 11:09:23;;;;;;;24.63;3.88;;;5.80;99.90;;;;;;5134455;27;20077;-82
2022/01/06 11:14:17;;;;;;;17.63;3.47;;;6.20;99.90;;;;;;5101313;27;20047;-82
2022/01/06 11:16:45;;;;;;;25.73;4.35;;;6.50;99.90;;;;;;5117268;27;20047;-82
2022/01/06 11:19:12;;;;;;;17.50;3.78;;;6.90;99.90;;;;;;5134621;27;20047;-83
2022/01/06 11:21:41;;;;;;;19.55;3.70;;;7.30;99.90;;;;;;5134596;27;20083;-85
2022/01/06 11:24:17;;;;;;;21.30;3.72;;;7.80;99.90;;;;;;5119182;27;20555;-84
2022/01/06 11:26:56;;;;;;;22.02;4.10;;;8.30;99.90;;;;;;5125810;27;20126;-84
2022/01/06 11:29:42;;;;;;;19.10;3.83;;;8.60;99.90;;;;;;5101602;27;20143;-83
2022/01/06 11:32:22;;;;;;;18.25;3.35;;;9.00;99.90;;;;;;5124691;27;20055;-84
2022/01/06 11:35:08;;;;;;;16.42;3.40;;;9.20;99.90;;;;;;5113701;28;20047;-83
2022/01/06 11:37:41;;;;;;;17.42;3.78;;;9.30;99.90;;;;;;5113238;28;20055;-83
2022/01/06 11:40:08;;;;;;;13.18;3.13;;;9.40;99.90;;;;;;5130609;27;20059;-81
2022/01/06 11:42:33;;;;;;;18.95;2.78;;;9.50;99.90;;;;;;5126922;27;20046;-82
2022/01/06 11:44:59;;;;;;;16.77;3.13;;;9.60;99.90;;;;;;5116597;27;20051;-83
2022/01/06 11:47:37;;;;;;;18.67;3.05;;;9.70;99.90;;;;;;5099410;27;20035;-83
2022/01/06 11:50:16;;;;;;;13.57;2.90;;;9.70;99.90;;;;;;5133339;27;20376;-84
2022/01/06 11:53:03;;;;;;;19.05;3.10;;;9.60;99.90;;;;;;5132595;27;20122;-85
2022/01/06 11:55:33;;;;;;;17.48;3.05;;;9.60;99.90;;;;;;5113097;28;20054;-83
2022/01/06 11:58:17;;;;;;;14.18;2.85;;;9.70;99.90;;;;;;5123029;27;20239;-83
2022/01/06 12:01:05;;;;;;;18.60;3.15;;;9.70;99.90;;;;;;5117294;27;20043;-83
2022/01/06 12:03:42;;;;;;;17.52;2.92;;;9.90;99.90;;;;;;5103069;27;20042;-83
2022/01/06 12:06:20;;;;;;;12.30;3.10;;;9.80;99.90;;;;;;5116508;27;20125;-83
2022/01/06 12:08:46;;;;;;;20.52;3.30;;;9.80;99.90;;;;;;5116462;27;20051;-83
2022/01/06 12:11:23;;;;;;;15.45;2.70;;;9.80;99.90;;;;;;5064735;27;20464;-83
2022/01/06 12:13:50;;;;;;;16.63;3.30;;;9.90;99.90;;;;;;5118010;27;20051;-83
2022/01/06 12:16:30;;;;;;;14.95;2.80;;;9.90;99.90;;;;;;5116063;27;20039;-83
2022/01/06 12:18:57;;;;;;;18.83;2.85;;;10.00;99.90;;;;;;5116196;27;20380;-80
2022/01/06 12:21:23;;;;;;;17.20;2.95;;;9.80;99.90;;;;;;5132837;27;20041;-81
2022/01/06 12:24:00;;;;;;;15.23;3.05;;;9.70;99.90;;;;;;5098747;27;20043;-81
2022/01/06 12:26:26;;;;;;;15.00;3.00;;;9.70;99.90;;;;;;5132977;27;20179;-81
2022/01/06 12:28:51;;;;;;;14.80;2.47;;;9.70;99.90;;;;;;5112765;27;20071;-83
2022/01/06 12:31:22;;;;;;;12.80;2.97;;;9.70;99.90;;;;;;5132299;27;20035;-83
2022/01/06 12:33:49;;;;;;;17.58;2.88;;;9.60;99.90;;;;;;5127532;27;20074;-81
2022/01/06 12:36:21;;;;;;;15.07;2.67;;;9.30;99.90;;;;;;5107913;27;20075;-81
2022/01/06 12:38:47;;;;;;;14.13;3.22;;;9.00;99.90;;;;;;5105268;27;20047;-81
2022/01/06 12:41:16;;;;;;;13.93;2.50;;;8.70;99.90;;;;;;5115768;27;20047;-80
2022/01/06 12:43:43;;;;;;;13.73;3.10;;;8.30;99.90;;;;;;5115195;27;20062;-80
2022/01/06 12:46:13;;;;;;;15.77;2.80;;;8.10;99.90;;;;;;5115308;28;20519;-80
2022/01/06 12:48:43;;;;;;;9.98;2.03;;;8.10;99.90;;;;;;5132961;27;20047;-81
2022/01/06 12:51:12;;;;;;;11.73;2.00;;;8.20;99.90;;;;;;5115588;28;20047;-81
2022/01/06 12:53:43;;;;;;;10.52;2.10;;;8.40;99.90;;;;;;5112023;28;20546;-80
2022/01/06 12:56:40;;;;;;;12.73;2.42;;;8.40;99.90;;;;;;5099589;28;20047;-83